San Marcos Municipal Airport
KHYI : now visible

Airfield :











YOU CAN JOIN US ON...

 
LOGIN :

Register | Disclaimer

   EN    FR    IT 

 









Legend :    VFR   Marginal VFR   IFR   Intensive IFR   Very Intensive IFR
Visi :
Ceiling :
>= 8 km
>= 3000ft
5 to 8 km
1000 to 3000 ft
1500m to 5 km
500 to 1000 ft
800 to 1500m
200 to 500 ft
< 800m
< 200 ft
Symbols :   Thunderstorms  Fog  Heavy snow  Heavy precipitations  Wind > 20 kt






- Airport Elevation : 597 ft


KHYI - San Marcos Municipal

CURRENT METAR :
  • 280756Z AUTO 33016G23KT 5SM BR BKN010 OVC019 05/05 A2998 RMK AO2 SLP152 P0002 T00500050

EXPIRED METARs :
  • 280656Z AUTO 34014G19KT 8SM BKN010 OVC019 06/05 A2999 RMK AO2 CIG 007V011 SLP155 P0002 T00560050
  • 280651Z AUTO 34010G17KT 10SM BKN010 OVC019 06/05 A2999 RMK AO2 P0001
  • 280629Z AUTO 34015G19KT 10SM SCT010 OVC019 05/05 A2999 RMK AO2
  • 280556Z AUTO 35012KT 6SM BR OVC008 05/05 A3000 RMK AO2 CIG 006V011 SLP158 P0001 60001 T00500050 10050 20044 400670044 58005

TAF N/A
KZHU FIR / North America



MET'MAP, your aeronautical weather chart ! - Copyright ORBIFLY December 2007 - Disclaimer

ORBIFLY MET'MAP TEAM :

Programming & Development : Alexandra Zaïnal
Concept & original design : Baudouin d'Aumeries
Assistance for programming : Marc-Olivier Méhu
Technical & hardware support : Manuel Goepfert

Contact : metmap@orbifly.com




SOURCES & CREDITS :

   NOAA       Earth
Advisory